createdAt,value
2022-09-15T00:01:12.591Z,97947.38
2022-09-15T00:03:49.004Z,97946.56
2022-09-15T00:06:17.539Z,97946.56
2022-09-15T00:08:44.921Z,97931.44
2022-09-15T00:11:24.445Z,97932.53
2022-09-15T00:13:53.143Z,97921.72
2022-09-15T00:16:23.379Z,97916.31
2022-09-15T00:18:50.968Z,97910.13
2022-09-15T00:21:23.680Z,97908.50
2022-09-15T00:23:52.073Z,97895.31
2022-09-15T00:26:24.023Z,97898.31
2022-09-15T00:28:52.211Z,97901.31
2022-09-15T00:31:23.411Z,97891.31
2022-09-15T00:33:55.038Z,97890.50
2022-09-15T00:36:24.547Z,97890.50
2022-09-15T00:38:52.666Z,97886.72
2022-09-15T00:41:22.744Z,97882.41
2022-09-15T00:44:05.891Z,97870.50
2022-09-15T00:46:40.995Z,97873.81
2022-09-15T00:49:29.521Z,97868.72
2022-09-15T00:52:17.502Z,97870.94
2022-09-15T00:55:28.398Z,97864.72
2022-09-15T00:58:08.754Z,97863.13
2022-09-15T01:00:36.754Z,97863.13
2022-09-15T01:03:04.648Z,97871.53
2022-09-15T01:05:41.122Z,97858.31
2022-09-15T01:08:17.478Z,97856.75
2022-09-15T01:10:46.726Z,97843.25
2022-09-15T01:13:15.306Z,97824.94
2022-09-15T01:16:09.919Z,97833.84
2022-09-15T01:19:17.596Z,97833.53
2022-09-15T01:22:04.618Z,97835.75
2022-09-15T01:24:52.925Z,97831.13
2022-09-15T01:28:16.080Z,97841.13
2022-09-15T01:31:01.213Z,97835.75
2022-09-15T01:33:37.757Z,97835.75
2022-09-15T01:36:24.201Z,97834.94
2022-09-15T01:39:07.575Z,97835.75
2022-09-15T01:42:03.375Z,97832.53
2022-09-15T01:44:49.469Z,97833.03
2022-09-15T01:47:20.977Z,97828.72
2022-09-15T01:49:59.274Z,97824.94
2022-09-15T01:52:28.993Z,97827.94
2022-09-15T01:55:04.622Z,97821.75
2022-09-15T01:57:33.282Z,97829.84
2022-09-15T02:00:01.033Z,97827.94
2022-09-15T02:02:40.827Z,97828.72
2022-09-15T02:05:50.127Z,97831.75
2022-09-15T02:08:40.582Z,97830.13
2022-09-15T02:11:22.777Z,97829.34
2022-09-15T02:13:59.758Z,97826.66
2022-09-15T02:16:35.164Z,97826.66
2022-09-15T02:19:13.636Z,97823.97
2022-09-15T02:21:57.170Z,97815.84
2022-09-15T02:24:56.421Z,97818.06
2022-09-15T02:27:29.805Z,97817.53
2022-09-15T02:30:05.883Z,97821.38
2022-09-15T02:32:36.863Z,97807.38
2022-09-15T02:35:09.893Z,97809.56
2022-09-15T02:37:38.885Z,97810.97
2022-09-15T02:40:07.731Z,97822.06
2022-09-15T02:42:35.474Z,97823.16
2022-09-15T02:45:04.515Z,97817.75
2022-09-15T02:47:32.433Z,97814.56
2022-09-15T02:50:00.112Z,97810.78
2022-09-15T02:52:30.554Z,97812.69
2022-09-15T02:54:57.478Z,97810.78
2022-09-15T02:57:24.534Z,97801.06
2022-09-15T03:00:10.655Z,97811.88
2022-09-15T03:02:38.370Z,97804.59
2022-09-15T03:05:08.103Z,97803.78
2022-09-15T03:07:37.154Z,97795.19
2022-09-15T03:10:08.031Z,97806.00
2022-09-15T03:12:51.465Z,97795.19
2022-09-15T03:15:24.757Z,97806.78
2022-09-15T03:17:53.251Z,97792.50
2022-09-15T03:20:26.027Z,97797.41
2022-09-15T03:22:53.357Z,97798.97
2022-09-15T03:25:21.122Z,97800.91
2022-09-15T03:27:48.460Z,97792.00
2022-09-15T03:30:15.803Z,97790.38
2022-09-15T03:32:43.665Z,97790.38
2022-09-15T03:35:10.685Z,97795.78
2022-09-15T03:37:38.333Z,97784.22
2022-09-15T03:40:06.670Z,97788.81
2022-09-15T03:42:33.900Z,97790.72
2022-09-15T03:45:01.445Z,97785.63
2022-09-15T03:47:28.941Z,97788.00
2022-09-15T03:49:56.198Z,97774.81
2022-09-15T03:52:23.479Z,97778.94
2022-09-15T03:54:50.551Z,97775.44
2022-09-15T03:57:17.661Z,97783.03
2022-09-15T03:59:44.829Z,97785.22
2022-09-15T04:02:11.941Z,97785.22
2022-09-15T04:04:39.276Z,97778.22
2022-09-15T04:07:06.407Z,97773.94
2022-09-15T04:09:33.710Z,97780.44
2022-09-15T04:12:00.754Z,97776.44
2022-09-15T04:14:28.015Z,97775.66
2022-09-15T04:16:55.264Z,97776.72
2022-09-15T04:19:22.369Z,97774.34
2022-09-15T04:21:49.598Z,97775.44
2022-09-15T04:24:17.185Z,97777.66
2022-09-15T04:26:45.155Z,97769.88
2022-09-15T04:29:16.489Z,97769.88
2022-09-15T04:31:43.773Z,97762.84
2022-09-15T04:34:11.398Z,97770.47
2022-09-15T04:36:38.732Z,97759.66
2022-09-15T04:39:06.640Z,97760.47
2022-09-15T04:41:34.829Z,97755.88
2022-09-15T04:44:02.972Z,97765.06
2022-09-15T04:46:31.133Z,97772.06
2022-09-15T04:48:58.403Z,97767.44
2022-09-15T04:51:27.134Z,97758.25
2022-09-15T04:53:54.530Z,97757.47
2022-09-15T04:56:25.508Z,97761.44
2022-09-15T04:59:03.502Z,97765.44
2022-09-15T05:01:35.301Z,97765.44
2022-09-15T05:04:04.606Z,97757.34
2022-09-15T05:06:33.559Z,97763.25
2022-09-15T05:09:05.430Z,97759.44
2022-09-15T05:11:36.627Z,97758.34
2022-09-15T05:14:04.089Z,97760.75
2022-09-15T05:16:31.919Z,97756.16
2022-09-15T05:19:03.077Z,97762.03
2022-09-15T05:21:31.509Z,97758.22
2022-09-15T05:23:58.544Z,97759.84
2022-09-15T05:26:28.517Z,97759.84
2022-09-15T05:28:57.555Z,97763.03
2022-09-15T05:31:30.459Z,97750.03
2022-09-15T05:34:00.533Z,97751.63
2022-09-15T05:36:27.674Z,97751.03
2022-09-15T05:38:58.033Z,97747.22
2022-09-15T05:41:28.306Z,97750.41
2022-09-15T05:43:57.558Z,97756.31
2022-09-15T05:46:26.314Z,97752.50
2022-09-15T05:48:56.565Z,97755.69
2022-09-15T05:51:24.691Z,97750.81
2022-09-15T05:53:52.157Z,97758.59
2022-09-15T05:56:20.163Z,97755.56
2022-09-15T05:58:49.281Z,97757.66
2022-09-15T06:01:23.876Z,97758.16
2022-09-15T06:03:51.932Z,97750.56
2022-09-15T06:06:21.888Z,97748.34
2022-09-15T06:08:58.141Z,97747.72
2022-09-15T06:11:30.331Z,97745.53
2022-09-15T06:14:00.733Z,97746.50
2022-09-15T06:16:33.948Z,97744.31
2022-09-15T06:19:02.452Z,97746.41
2022-09-15T06:21:32.001Z,97750.06
2022-09-15T06:24:04.400Z,97751.84
2022-09-15T06:26:31.707Z,97755.59
2022-09-15T06:29:02.773Z,97753.03
2022-09-15T06:31:33.513Z,97759.44
2022-09-15T06:34:03.945Z,97753.44
2022-09-15T06:36:32.360Z,97755.97
2022-09-15T06:38:59.996Z,97758.06
2022-09-15T06:41:35.337Z,97760.16
2022-09-15T06:44:20.085Z,97764.97
2022-09-15T06:46:48.216Z,97765.13
2022-09-15T06:49:16.466Z,97782.34
2022-09-15T06:51:43.531Z,97787.91
2022-09-15T06:54:11.805Z,97785.09
2022-09-15T06:56:39.006Z,97796.09
2022-09-15T06:59:06.190Z,97798.47
2022-09-15T07:01:44.518Z,97807.56
2022-09-15T07:04:11.613Z,97812.81
2022-09-15T07:06:39.821Z,97817.63
2022-09-15T07:09:07.299Z,97827.34
2022-09-15T07:11:34.671Z,97829.91
2022-09-15T07:14:02.479Z,97832.50
2022-09-15T07:16:30.238Z,97825.81
2022-09-15T07:19:01.381Z,97834.47
2022-09-15T07:21:29.305Z,97832.97
2022-09-15T07:24:01.598Z,97837.63
2022-09-15T07:26:33.784Z,97833.50
2022-09-15T07:29:05.272Z,97844.06
2022-09-15T07:31:36.141Z,97848.06
2022-09-15T07:34:03.957Z,97856.56
2022-09-15T07:36:31.926Z,97866.28
2022-09-15T07:38:59.377Z,97877.63
2022-09-15T07:41:30.768Z,97870.47
2022-09-15T07:44:00.176Z,97879.63
2022-09-15T07:46:32.399Z,97892.22
2022-09-15T07:49:02.882Z,97886.97
2022-09-15T07:51:30.449Z,97899.38
2022-09-15T07:53:57.502Z,97916.63
2022-09-15T07:56:24.842Z,97919.19
2022-09-15T07:58:52.757Z,97914.41
2022-09-15T08:01:22.424Z,97919.19
2022-09-15T08:03:52.561Z,97921.28
2022-09-15T08:06:25.089Z,97932.44
2022-09-15T08:08:57.773Z,97947.56
2022-09-15T08:11:28.845Z,97969.53
2022-09-15T08:13:56.026Z,97993.41
2022-09-15T08:16:24.907Z,98002.91
2022-09-15T08:18:54.331Z,98005.84
2022-09-15T08:21:23.886Z,98000.53
2022-09-15T08:23:54.101Z,98009.25
2022-09-15T08:26:22.503Z,98033.81
2022-09-15T08:28:49.913Z,98037.56
2022-09-15T08:31:18.106Z,98048.53
2022-09-15T08:33:51.648Z,98051.97
2022-09-15T08:36:18.878Z,98045.31
2022-09-15T08:38:47.055Z,98037.25
2022-09-15T08:41:41.617Z,98046.56
2022-09-15T08:44:57.562Z,98054.84
2022-09-15T08:47:40.783Z,98064.75
2022-09-15T08:50:29.851Z,98066.41
2022-09-15T08:53:19.998Z,98078.22
2022-09-15T08:55:52.958Z,98073.09
2022-09-15T08:58:34.020Z,98076.22
2022-09-15T09:01:37.101Z,98085.53
2022-09-15T09:04:42.523Z,98081.66
2022-09-15T09:08:03.115Z,98077.09
2022-09-15T09:10:51.764Z,98073.09
2022-09-15T09:14:03.502Z,98093.81
2022-09-15T09:16:51.913Z,98096.50
2022-09-15T09:19:46.091Z,98107.53
2022-09-15T09:22:21.886Z,98103.72
2022-09-15T09:24:55.723Z,98111.88
2022-09-15T09:27:29.850Z,98110.41
2022-09-15T09:30:15.246Z,98113.31
2022-09-15T09:33:13.336Z,98110.72
2022-09-15T09:35:49.002Z,98101.88
2022-09-15T09:38:41.790Z,98102.31
2022-09-15T09:41:19.687Z,98105.50
2022-09-15T09:43:49.520Z,98106.50
2022-09-15T09:46:20.284Z,98108.41
2022-09-15T09:48:58.695Z,98113.84
2022-09-15T09:51:55.273Z,98117.56
2022-09-15T09:54:27.216Z,98114.84
2022-09-15T09:57:08.889Z,98116.00
2022-09-15T09:59:50.926Z,98120.78
2022-09-15T10:02:24.763Z,98121.63
2022-09-15T10:05:12.310Z,98122.75
2022-09-15T10:07:43.854Z,98126.25
2022-09-15T10:10:25.997Z,98123.06
2022-09-15T10:12:59.121Z,98123.72
2022-09-15T10:15:31.889Z,98124.84
2022-09-15T10:18:00.333Z,98129.97
2022-09-15T10:20:47.970Z,98131.72
2022-09-15T10:23:18.637Z,98128.66
2022-09-15T10:26:01.368Z,98142.22
2022-09-15T10:28:29.210Z,98133.44
2022-09-15T10:31:04.334Z,98134.06
2022-09-15T10:33:35.183Z,98121.94
2022-09-15T10:36:13.885Z,98120.97
2022-09-15T10:38:49.037Z,98118.75
2022-09-15T10:41:29.856Z,98117.00
2022-09-15T10:44:46.738Z,98114.63
2022-09-15T10:47:35.963Z,98111.59
2022-09-15T10:50:34.537Z,98112.38
2022-09-15T10:53:25.217Z,98111.88
2022-09-15T10:56:25.942Z,98114.47
2022-09-15T10:59:17.909Z,98109.50
2022-09-15T11:02:18.195Z,98096.69
2022-09-15T11:05:32.149Z,98101.38
2022-09-15T11:08:32.059Z,98095.59
2022-09-15T11:11:39.749Z,98097.69
2022-09-15T11:14:13.817Z,98104.53
2022-09-15T11:17:37.371Z,98095.09
2022-09-15T11:20:43.753Z,98104.47
2022-09-15T11:23:28.560Z,98088.97
2022-09-15T11:26:07.528Z,98079.97
2022-09-15T11:28:45.525Z,98074.53
2022-09-15T11:31:24.405Z,98063.97
2022-09-15T11:34:40.076Z,98069.81
2022-09-15T11:37:15.042Z,98069.13
2022-09-15T11:39:55.350Z,98073.09
2022-09-15T11:42:35.686Z,98067.75
2022-09-15T11:45:03.843Z,98047.66
2022-09-15T11:47:44.726Z,98038.91
2022-09-15T11:50:29.610Z,98041.81
2022-09-15T11:53:12.074Z,98040.56
2022-09-15T11:55:51.282Z,98035.28
2022-09-15T11:59:03.731Z,98032.63
2022-09-15T12:01:52.247Z,98037.63
2022-09-15T12:04:33.055Z,98039.59
2022-09-15T12:07:23.182Z,98039.94
2022-09-15T12:09:50.858Z,98043.41
2022-09-15T12:12:22.543Z,98031.16
2022-09-15T12:14:52.936Z,98025.03
2022-09-15T12:17:45.428Z,98026.13
2022-09-15T12:20:37.447Z,98028.09
2022-09-15T12:23:19.393Z,98021.03
2022-09-15T12:26:23.657Z,98017.88
2022-09-15T12:29:38.096Z,98014.56
2022-09-15T12:32:40.328Z,98017.47
2022-09-15T12:35:16.818Z,98021.34
2022-09-15T12:37:56.906Z,98022.03
2022-09-15T12:40:30.124Z,98017.22
2022-09-15T12:42:57.869Z,98014.72
2022-09-15T12:45:38.601Z,98013.81
2022-09-15T12:48:20.444Z,98014.13
2022-09-15T12:51:23.264Z,98012.22
2022-09-15T12:54:00.360Z,98012.22
2022-09-15T12:56:31.658Z,98003.81
2022-09-15T12:59:13.906Z,98002.41
2022-09-15T13:01:51.469Z,98016.94
2022-09-15T13:04:53.005Z,98009.44
2022-09-15T13:07:20.934Z,98005.81
2022-09-15T13:10:07.889Z,98002.59
2022-09-15T13:12:44.039Z,98002.50
2022-09-15T13:15:16.243Z,98007.03
2022-09-15T13:17:47.150Z,98007.56
2022-09-15T13:20:31.744Z,98000.25
2022-09-15T13:23:03.133Z,97992.94
2022-09-15T13:25:31.122Z,97988.38
2022-09-15T13:28:02.395Z,97986.06
2022-09-15T13:31:03.397Z,97996.22
2022-09-15T13:41:09.392Z,97995.06
2022-09-15T13:44:19.848Z,97999.72
2022-09-15T13:47:21.586Z,97985.03
2022-09-15T13:50:11.417Z,97974.44
2022-09-15T13:53:06.127Z,97986.78
2022-09-15T13:55:42.246Z,97984.25
2022-09-15T14:01:07.224Z,97984.63
2022-09-15T14:03:54.047Z,97980.81
2022-09-15T14:06:30.202Z,97969.91
2022-09-15T14:09:12.784Z,97968.31
2022-09-15T14:11:42.503Z,97959.38
2022-09-15T14:14:27.974Z,97963.56
2022-09-15T14:16:56.982Z,97960.34
2022-09-15T14:19:35.067Z,97963.25
2022-09-15T14:22:17.805Z,97975.91
2022-09-15T14:24:44.917Z,97975.16
2022-09-15T14:27:27.444Z,97978.72
2022-09-15T14:30:00.435Z,97969.47
2022-09-15T14:32:31.449Z,97967.09
2022-09-15T14:35:04.268Z,97958.47
2022-09-15T14:37:32.591Z,97961.84
2022-09-15T14:40:16.648Z,97960.88
2022-09-15T14:42:44.598Z,97970.81
2022-09-15T14:48:17.632Z,97964.13
2022-09-15T14:51:01.694Z,97970.19
2022-09-15T14:53:35.919Z,97969.22
2022-09-15T14:56:22.264Z,97964.47
2022-09-15T14:59:01.860Z,97974.88
2022-09-15T15:01:42.814Z,97979.03
2022-09-15T15:04:40.499Z,97968.00
2022-09-15T15:07:22.858Z,97957.78
2022-09-15T15:10:01.480Z,97952.97
2022-09-15T15:12:45.594Z,97967.22
2022-09-15T15:15:16.176Z,97958.91
2022-09-15T15:17:49.250Z,97954.94
2022-09-15T15:20:23.040Z,97961.00
2022-09-15T15:23:23.760Z,97959.25
2022-09-15T15:25:53.108Z,97957.97
2022-09-15T15:28:35.879Z,97950.47
2022-09-15T15:31:25.069Z,97949.53
2022-09-15T15:33:59.668Z,97947.44
2022-09-15T15:36:30.277Z,97940.75
2022-09-15T15:39:03.932Z,97949.22
2022-09-15T15:41:37.073Z,97951.47
2022-09-15T15:44:27.790Z,97952.09
2022-09-15T15:47:03.613Z,97954.34
2022-09-15T15:49:32.685Z,97951.94
2022-09-15T15:52:06.551Z,97951.47
2022-09-15T15:54:34.650Z,97955.59
2022-09-15T15:57:24.517Z,97952.44
2022-09-15T15:59:57.281Z,97944.88
2022-09-15T16:02:26.747Z,97953.69
2022-09-15T16:04:54.991Z,97962.63
2022-09-15T16:07:24.234Z,97967.25
2022-09-15T16:09:51.810Z,97958.75
2022-09-15T16:12:19.143Z,97959.41
2022-09-15T16:14:46.241Z,97957.81
2022-09-15T16:17:14.022Z,97951.91
2022-09-15T16:19:41.422Z,97950.97
2022-09-15T16:22:18.283Z,97958.28
2022-09-15T16:24:46.354Z,97961.97
2022-09-15T16:27:18.228Z,97967.81
2022-09-15T16:29:45.655Z,97968.44
2022-09-15T16:32:22.038Z,97980.72
2022-09-15T16:34:52.641Z,97984.56
2022-09-15T16:37:19.935Z,97986.00
2022-09-15T16:39:46.995Z,97982.00
2022-09-15T16:42:14.116Z,97995.06
2022-09-15T16:44:41.561Z,97994.09
2022-09-15T16:47:09.151Z,97992.78
2022-09-15T16:49:39.262Z,98003.78
2022-09-15T16:52:09.523Z,97995.34
2022-09-15T16:54:36.678Z,97998.69
2022-09-15T16:57:03.942Z,97998.22
2022-09-15T16:59:31.609Z,97991.81
2022-09-15T17:01:59.186Z,97997.66
2022-09-15T17:04:26.632Z,98002.25
2022-09-15T17:06:54.002Z,98001.31
2022-09-15T17:09:21.506Z,98004.63
2022-09-15T17:11:49.003Z,98002.56
2022-09-15T17:14:17.783Z,98005.41
2022-09-15T17:16:47.326Z,98002.31
2022-09-15T17:19:14.614Z,98004.31
2022-09-15T17:21:41.982Z,98018.66
2022-09-15T17:24:09.431Z,98018.09
2022-09-15T17:26:36.498Z,98026.09
2022-09-15T17:29:04.206Z,98025.41
2022-09-15T17:31:32.385Z,98024.78
2022-09-15T17:34:00.909Z,98035.28
2022-09-15T17:36:28.206Z,98033.84
2022-09-15T17:38:55.693Z,98044.06
2022-09-15T17:41:22.955Z,98045.53
2022-09-15T17:43:53.339Z,98046.22
2022-09-15T17:46:20.602Z,98051.75
2022-09-15T17:48:47.598Z,98051.84
2022-09-15T17:51:17.659Z,98051.38
2022-09-15T17:53:46.787Z,98056.16
2022-09-15T17:56:14.310Z,98050.94
2022-09-15T17:58:43.158Z,98061.97
2022-09-15T18:01:15.363Z,98065.66
2022-09-15T18:03:44.734Z,98068.84
2022-09-15T18:06:13.017Z,98067.75
2022-09-15T18:08:40.363Z,98072.66
2022-09-15T18:11:07.898Z,98071.56
2022-09-15T18:13:35.372Z,98085.88
2022-09-15T18:16:10.268Z,98086.31
2022-09-15T18:18:39.898Z,98085.38
2022-09-15T18:21:15.887Z,98097.44
2022-09-15T18:23:45.013Z,98097.63
2022-09-15T18:26:12.281Z,98098.13
2022-09-15T18:28:39.366Z,98088.41
2022-09-15T18:31:07.335Z,98091.44
2022-09-15T18:33:34.471Z,98087.44
2022-09-15T18:36:02.068Z,98092.63
2022-09-15T18:38:29.698Z,98097.81
2022-09-15T18:40:57.360Z,98102.03
2022-09-15T18:43:27.765Z,98105.53
2022-09-15T18:45:59.820Z,98103.84
2022-09-15T18:48:29.135Z,98109.63
2022-09-15T18:50:56.803Z,98115.56
2022-09-15T18:53:24.579Z,98099.84
2022-09-15T18:55:51.987Z,98099.25
2022-09-15T18:58:19.528Z,98100.03
2022-09-15T19:00:46.910Z,98085.22
2022-09-15T19:03:14.444Z,98092.81
2022-09-15T19:05:42.287Z,98101.25
2022-09-15T19:08:11.294Z,98109.63
2022-09-15T19:10:41.579Z,98111.81
2022-09-15T19:13:11.246Z,98112.41
2022-09-15T19:15:43.905Z,98106.22
2022-09-15T19:18:12.122Z,98106.47
2022-09-15T19:20:40.302Z,98100.59
2022-09-15T19:23:08.167Z,98111.38
2022-09-15T19:25:36.825Z,98112.47
2022-09-15T19:28:04.010Z,98122.00
2022-09-15T19:30:31.242Z,98120.69
2022-09-15T19:32:58.936Z,98136.09
2022-09-15T19:35:26.203Z,98130.19
2022-09-15T19:37:53.788Z,98123.19
2022-09-15T19:40:23.827Z,98134.56
2022-09-15T19:42:51.123Z,98132.19
2022-09-15T19:45:18.500Z,98126.28
2022-09-15T19:47:45.906Z,98128.97
2022-09-15T19:50:13.336Z,98134.97
2022-09-15T19:52:40.765Z,98132.25
2022-09-15T19:55:09.728Z,98142.56
2022-09-15T19:57:42.088Z,98137.75
2022-09-15T20:00:12.014Z,98146.94
2022-09-15T20:02:40.154Z,98142.94
2022-09-15T20:05:08.880Z,98151.34
2022-09-15T20:07:36.815Z,98153.53
2022-09-15T20:10:04.778Z,98139.53
2022-09-15T20:12:32.204Z,98148.41
2022-09-15T20:14:59.537Z,98145.50
2022-09-15T20:17:27.252Z,98152.31
2022-09-15T20:19:54.567Z,98152.31
2022-09-15T20:22:21.928Z,98149.38
2022-09-15T20:24:49.562Z,98141.91
2022-09-15T20:27:16.995Z,98145.16
2022-09-15T20:29:44.521Z,98148.94
2022-09-15T20:32:11.827Z,98146.25
2022-09-15T20:34:39.179Z,98146.56
2022-09-15T20:37:07.090Z,98164.72
2022-09-15T20:39:35.694Z,98169.75
2022-09-15T20:42:07.289Z,98168.75
2022-09-15T20:44:34.824Z,98173.34
2022-09-15T20:47:04.125Z,98170.91
2022-09-15T20:49:31.933Z,98181.72
2022-09-15T20:51:59.295Z,98184.72
2022-09-15T20:54:26.459Z,98181.28
2022-09-15T20:56:53.771Z,98180.25
2022-09-15T20:59:21.067Z,98186.81
2022-09-15T21:01:48.390Z,98185.22
2022-09-15T21:04:15.681Z,98196.22
2022-09-15T21:06:42.993Z,98190.63
2022-09-15T21:09:10.241Z,98194.16
2022-09-15T21:11:37.767Z,98192.81
2022-09-15T21:14:05.510Z,98187.91
2022-09-15T21:16:34.875Z,98177.13
2022-09-15T21:19:03.423Z,98190.63
2022-09-15T21:21:32.874Z,98199.78
2022-09-15T21:24:04.693Z,98210.06
2022-09-15T21:26:57.989Z,98205.22
2022-09-15T21:29:27.695Z,98211.22
2022-09-15T21:31:56.482Z,98205.00
2022-09-15T21:34:24.061Z,98219.06
2022-09-15T21:36:53.669Z,98223.44
2022-09-15T21:39:21.511Z,98217.28
2022-09-15T21:41:48.859Z,98215.97
2022-09-15T21:44:16.317Z,98215.97
2022-09-15T21:46:46.851Z,98217.34
2022-09-15T21:49:14.691Z,98227.13
2022-09-15T21:51:41.994Z,98237.16
2022-09-15T21:54:10.224Z,98237.66
2022-09-15T21:56:37.645Z,98235.81
2022-09-15T21:59:05.521Z,98238.22
2022-09-15T22:01:33.594Z,98244.19
2022-09-15T22:04:06.881Z,98245.00
2022-09-15T22:06:40.195Z,98245.00
2022-09-15T22:09:15.068Z,98250.38
2022-09-15T22:11:43.145Z,98246.16
2022-09-15T22:14:11.922Z,98253.72
2022-09-15T22:16:42.273Z,98256.69
2022-09-15T22:19:11.942Z,98261.06
2022-09-15T22:21:41.807Z,98258.63
2022-09-15T22:24:13.102Z,98266.19
2022-09-15T22:26:42.431Z,98259.78
2022-09-15T22:29:10.525Z,98264.91
2022-09-15T22:31:38.507Z,98266.28
2022-09-15T22:34:06.169Z,98265.25
2022-09-15T22:36:33.752Z,98275.53
2022-09-15T22:39:05.008Z,98271.22
2022-09-15T22:41:36.924Z,98262.91
2022-09-15T22:44:06.752Z,98267.53
2022-09-15T22:46:34.824Z,98276.69
2022-09-15T22:49:02.339Z,98274.56
2022-09-15T22:51:33.456Z,98279.41
2022-09-15T22:54:03.074Z,98289.69
2022-09-15T22:56:30.538Z,98285.38
2022-09-15T22:58:57.777Z,98287.53
2022-09-15T23:01:30.556Z,98290.84
2022-09-15T23:04:01.343Z,98294.09
2022-09-15T23:06:32.989Z,98293.06
2022-09-15T23:09:05.421Z,98301.16
2022-09-15T23:11:33.474Z,98292.00
2022-09-15T23:14:01.642Z,98292.00
2022-09-15T23:16:30.769Z,98289.31
2022-09-15T23:18:59.980Z,98282.88
2022-09-15T23:21:28.298Z,98287.75
2022-09-15T23:23:55.988Z,98286.97
2022-09-15T23:26:25.279Z,98288.84
2022-09-15T23:28:53.538Z,98290.47
2022-09-15T23:31:21.850Z,98287.25
2022-09-15T23:33:49.506Z,98286.19
2022-09-15T23:36:21.838Z,98293.22
2022-09-15T23:38:49.931Z,98296.47
2022-09-15T23:41:18.817Z,98291.63
2022-09-15T23:43:46.521Z,98298.38
2022-09-15T23:46:14.770Z,98294.34
2022-09-15T23:48:42.657Z,98299.75
2022-09-15T23:51:10.062Z,98294.94
2022-09-15T23:53:37.751Z,98307.84
2022-09-15T23:56:05.494Z,98302.47
2022-09-15T23:58:32.552Z,98307.31
